Time;durP1;ratioP1;P1;durP2;ratioP2;P2;SDS_P1;SDS_P2;PMS_P1;PMS_P2;Temp;Humidity;BMP_temperature;BMP_pressure;BME280_temperature;BME280_humidity;BME280_pressure;Samples;Min_cycle;Max_cycle;Signal;HPM_P1;HPM_P2
2024/02/09 00:01:42;;;;;;;29.25;5.30;;;1.90;99.90;;;0.41;94.81;99513.03;5005179;28;20022;-80
2024/02/09 00:04:08;;;;;;;26.67;4.45;;;2.00;99.90;;;0.42;94.81;99503.53;4995755;28;20403;-80
2024/02/09 00:06:37;;;;;;;23.60;4.45;;;2.00;99.90;;;0.43;94.77;99500.91;5021073;28;20037;-81
2024/02/09 00:09:03;;;;;;;24.42;4.88;;;2.00;99.90;;;0.44;94.68;99494.84;5010464;28;20044;-80
2024/02/09 00:11:29;;;;;;;23.23;4.10;;;2.00;99.90;;;0.46;94.84;99498.25;5006141;28;20041;-80
2024/02/09 00:13:55;;;;;;;25.02;4.15;;;2.00;99.90;;;0.47;95.55;99502.53;5003963;28;20037;-80
2024/02/09 00:16:21;;;;;;;24.30;4.35;;;2.00;99.90;;;0.47;95.29;99483.56;4992443;28;20639;-80
2024/02/09 00:18:47;;;;;;;24.90;4.90;;;2.00;99.90;;;0.50;95.19;99484.34;4989436;28;20563;-80
2024/02/09 00:21:13;;;;;;;26.58;6.80;;;2.10;99.90;;;0.51;95.58;99486.03;5007952;28;20037;-79
2024/02/09 00:34:45;;;;;;;23.75;5.10;;;2.10;99.90;;;0.54;96.19;99467.81;4841963;29;20085;-84
2024/02/09 00:37:55;;;;;;;25.30;7.07;;;2.10;99.90;;;0.54;96.42;99460.06;4833024;29;20183;-85
2024/02/09 00:40:56;;;;;;;23.65;6.65;;;2.10;99.90;;;0.57;96.29;99464.31;4824683;29;20443;-85
2024/02/09 00:43:37;;;;;;;25.05;5.40;;;2.10;99.90;;;0.56;96.36;99463.47;4824835;29;20063;-85
2024/02/09 00:55:16;;;;;;;29.05;4.90;;;2.20;99.90;;;0.65;96.90;99482.22;5138817;22;20110;-85
2024/02/09 01:01:25;;;;;;;25.75;6.07;;;2.20;99.90;;;0.63;97.20;99464.16;4988077;28;20131;-85
2024/02/09 01:04:36;;;;;;;24.92;6.00;;;2.20;99.90;;;0.67;97.10;99463.19;5012993;23;20133;-85
2024/02/09 01:07:14;;;;;;;34.25;7.00;;;2.20;99.90;;;0.69;97.26;99463.13;5040018;28;20167;-85
2024/02/09 02:46:15;;;;;;;66.88;16.80;;;;;;;0.99;100.00;99396.63;4900232;29;20511;-86
2024/02/09 03:08:41;;;;;;;55.90;14.63;;;2.60;99.90;;;1.13;100.00;99383.28;5054189;28;20090;-85
2024/02/09 03:11:26;;;;;;;;;;;;;;;;;;;;;
2024/02/09 03:14:27;;;;;;;44.38;13.18;;;2.70;99.90;;;1.13;100.00;99370.34;5012489;28;20038;-86
2024/02/09 03:17:07;;;;;;;;;;;;;;;;;;;;;
2024/02/09 03:20:05;;;;;;;45.20;14.52;;;2.70;99.90;;;1.16;100.00;99372.81;4969786;28;20053;-86
2024/02/09 03:25:29;;;;;;;38.08;11.75;;;2.70;99.90;;;1.15;100.00;99353.81;5192713;23;20045;-86
2024/02/09 03:28:08;;;;;;;41.67;13.50;;;2.70;99.90;;;1.17;100.00;99352.03;5063507;28;20029;-85
2024/02/09 03:33:59;;;;;;;48.05;14.80;;;;;;;1.20;99.91;99357.13;5065517;28;20036;-86
2024/02/09 03:36:57;;;;;;;55.25;14.23;;;;;;;1.21;99.66;99345.03;5044667;28;20064;-86
2024/02/09 03:39:38;;;;;;;40.33;13.77;;;2.70;99.90;;;1.17;99.37;99330.47;5028029;28;20120;-86
2024/02/09 03:42:16;;;;;;;52.58;13.88;;;;;;;1.21;99.34;99342.44;5038348;28;20086;-86
2024/02/09 03:48:26;;;;;;;44.50;13.18;;;;;;;1.20;99.49;99338.13;5066475;28;20098;-86
2024/02/09 03:51:46;;;;;;;45.70;14.35;;;2.70;99.90;;;1.18;99.27;99342.50;5064841;28;20040;-86
2024/02/09 03:58:46;;;;;;;44.92;11.50;;;2.70;99.90;;;1.16;98.98;99332.19;5030608;28;20120;-86
2024/02/09 04:01:45;;;;;;;36.78;12.70;;;2.70;99.90;;;1.17;98.97;99328.72;4986505;28;21411;-87
2024/02/09 04:04:55;;;;;;;38.13;11.00;;;2.70;99.90;;;1.17;98.50;99331.31;4971886;28;20038;-86
2024/02/09 04:07:46;;;;;;;52.17;10.75;;;2.70;99.90;;;1.15;98.52;99337.44;4901632;29;20123;-87
2024/02/09 04:10:33;;;;;;;35.50;10.00;;;2.70;99.90;;;1.14;98.32;99325.34;4903299;29;20517;-87
2024/02/09 04:13:07;;;;;;;39.75;11.40;;;;;;;1.16;98.08;99326.16;4901809;29;20044;-86
2024/02/09 04:15:36;;;;;;;34.03;9.45;;;2.70;99.90;;;1.13;97.91;99313.28;4915227;29;20887;-86
2024/02/09 04:18:58;;;;;;;;;;;;;;;;;;;;;
2024/02/09 04:21:27;;;;;;;38.85;10.30;;;2.70;99.90;;;1.14;97.37;99307.19;4914014;29;20044;-86
2024/02/09 04:24:05;;;;;;;29.50;8.80;;;2.70;99.90;;;1.14;96.69;99294.22;4898544;29;20112;-86
2024/02/09 04:30:18;;;;;;;34.47;9.18;;;2.70;99.90;;;1.13;96.80;99283.03;4913962;29;20134;-87
2024/02/09 04:35:16;;;;;;;31.77;8.65;;;;;;;1.11;96.16;99276.19;5152476;23;20052;-86
2024/02/09 04:38:18;;;;;;;32.13;8.48;;;;;;;1.10;96.16;99271.88;5068000;28;20036;-87
2024/02/09 04:40:56;;;;;;;32.05;8.70;;;2.60;99.90;;;1.08;95.87;99261.59;5072302;28;20063;-87
2024/02/09 04:46:48;;;;;;;29.48;8.05;;;2.60;99.90;;;1.06;95.04;99260.78;5001674;28;20340;-85
2024/02/09 04:49:26;;;;;;;31.05;7.63;;;2.60;99.90;;;1.09;94.98;99259.84;4973723;28;20118;-87
2024/02/09 04:52:06;;;;;;;31.98;7.60;;;2.60;99.90;;;1.08;94.88;99251.22;4968065;28;20039;-87
2024/02/09 04:55:50;;;;;;;33.90;8.50;;;2.60;99.90;;;1.07;94.71;99254.69;4970868;28;20050;-87
2024/02/09 04:58:16;;;;;;;27.60;7.13;;;;;;;1.06;94.76;99254.72;5005588;28;20050;-86
2024/02/09 05:00:57;;;;;;;28.23;7.15;;;2.60;99.90;;;1.05;94.70;99242.69;5009597;28;20030;-86
2024/02/09 05:03:35;;;;;;;29.75;7.80;;;2.60;99.90;;;1.03;94.90;99247.91;4988601;28;20037;-86
2024/02/09 05:06:29;;;;;;;29.50;7.10;;;;;;;1.05;94.53;99253.06;4998091;28;20032;-86
2024/02/09 05:09:07;;;;;;;;;;;;;;;;;;;;;
2024/02/09 05:11:48;;;;;;;29.10;7.50;;;2.60;99.90;;;1.00;94.21;99267.00;4997114;28;21453;-86
2024/02/09 05:15:16;;;;;;;25.13;6.72;;;2.60;99.90;;;1.02;94.10;99266.97;4978868;28;20492;-86
2024/02/09 05:17:45;;;;;;;29.38;7.55;;;2.60;99.90;;;0.98;93.96;99257.56;4996047;28;20054;-86
2024/02/09 05:20:37;;;;;;;23.90;6.88;;;;;;;1.01;93.94;99260.06;4987192;28;20059;-86
2024/02/09 05:23:46;;;;;;;29.88;7.30;;;2.60;99.90;;;1.03;94.16;99248.75;5020847;28;20060;-87
2024/02/09 05:26:17;;;;;;;26.27;8.10;;;;;;;1.01;93.69;99241.91;5043903;28;20025;-87
2024/02/09 05:28:55;;;;;;;28.73;7.53;;;2.60;99.90;;;1.01;94.21;99236.72;5046627;28;20043;-87
2024/02/09 05:31:46;;;;;;;29.02;8.38;;;2.60;99.90;;;1.05;93.97;99240.09;5041086;28;20021;-86
2024/02/09 05:34:16;;;;;;;27.40;7.60;;;2.60;99.90;;;1.05;94.16;99232.31;5097719;22;20042;-86
2024/02/09 05:37:58;;;;;;;28.67;7.53;;;2.60;99.90;;;1.06;94.11;99231.41;5049336;28;20068;-87
2024/02/09 05:41:26;;;;;;;32.90;6.28;;;2.60;99.90;;;0.99;94.23;99230.75;4986029;28;20046;-86
2024/02/09 05:44:07;;;;;;;26.83;6.63;;;2.60;99.90;;;0.98;93.86;99222.13;4855896;29;20128;-86
2024/02/09 05:46:47;;;;;;;26.38;7.68;;;2.50;99.90;;;1.00;94.06;99215.16;4842302;29;20037;-86
2024/02/09 05:50:29;;;;;;;;;;;;;;;;;;;;;
2024/02/09 05:52:56;;;;;;;27.90;6.95;;;2.60;99.90;;;0.99;94.19;99204.81;4905839;23;20084;-85
2024/02/09 06:19:14;;;;;;;21.48;7.15;;;;;;;0.98;94.17;99193.63;5056836;28;20041;-87
2024/02/09 06:25:44;;;;;;;31.83;7.53;;;2.60;99.90;;;1.05;94.09;99176.13;5066650;28;20549;-86
2024/02/09 06:31:51;;;;;;;24.88;6.43;;;;;;;1.05;93.98;99180.47;4933521;29;20081;-86
2024/02/09 06:34:26;;;;;;;20.65;6.95;;;;;;;1.02;94.18;99177.09;5060899;23;20037;-86
2024/02/09 06:36:56;;;;;;;31.30;8.23;;;;;;;1.07;94.08;99189.03;5047584;28;20037;-85
2024/02/09 06:40:05;;;;;;;25.10;7.20;;;2.60;99.90;;;1.10;94.02;99188.94;5037371;28;20279;-86
2024/02/09 06:42:47;;;;;;;25.40;7.30;;;;;;;1.11;94.11;99190.66;5013301;28;20037;-86
2024/02/09 06:45:44;;;;;;;28.30;7.88;;;2.70;99.90;;;1.13;93.84;99188.84;5013830;28;20034;-86
2024/02/09 06:48:57;;;;;;;24.63;7.00;;;2.70;99.90;;;1.11;93.69;99190.66;4975626;28;20048;-86
2024/02/09 06:51:35;;;;;;;28.55;7.95;;;;;;;1.14;93.92;99193.13;4973535;28;20448;-86
2024/02/09 06:54:44;;;;;;;25.60;7.20;;;2.70;99.90;;;1.14;94.09;99190.53;5041113;23;20049;-84
2024/02/09 06:57:22;;;;;;;30.33;8.77;;;2.70;99.90;;;1.14;94.10;99188.78;4983667;28;20041;-85
2024/02/09 06:59:48;;;;;;;26.33;8.40;;;2.70;99.90;;;1.12;93.69;99182.78;4993233;28;20097;-84
2024/02/09 07:02:18;;;;;;;28.98;9.18;;;;;;;1.14;93.84;99190.53;4991890;28;20037;-84
2024/02/09 07:05:10;;;;;;;27.17;8.60;;;2.70;99.90;;;1.10;93.76;99183.75;4994306;28;20030;-86
2024/02/09 07:07:45;;;;;;;27.08;8.63;;;2.70;99.90;;;1.12;93.74;99182.78;4948079;28;20106;-83
2024/02/09 07:10:14;;;;;;;39.28;9.55;;;2.70;99.90;;;1.17;94.01;99188.69;4957383;28;20042;-82
2024/02/09 07:12:49;;;;;;;36.20;10.00;;;2.70;99.90;;;1.19;93.85;99186.06;4968428;28;20032;-83
2024/02/09 07:15:16;;;;;;;35.67;8.68;;;2.70;99.90;;;1.19;93.98;99179.13;4945202;28;20656;-81
2024/02/09 07:17:53;;;;;;;35.30;8.80;;;2.70;99.90;;;1.21;93.78;99171.31;4968227;28;20490;-82
2024/02/09 07:20:19;;;;;;;31.60;9.35;;;2.70;99.90;;;1.18;93.86;99177.41;4955186;28;20034;-82
2024/02/09 07:22:46;;;;;;;28.10;9.48;;;2.70;99.90;;;1.20;93.93;99175.63;4972347;28;20039;-83
2024/02/09 07:25:23;;;;;;;43.63;10.55;;;2.70;99.90;;;1.19;94.12;99175.69;4955544;28;20042;-81
2024/02/09 07:27:48;;;;;;;35.97;9.50;;;2.70;99.90;;;1.18;94.12;99169.63;4976643;28;20503;-82
2024/02/09 07:30:17;;;;;;;29.60;9.55;;;2.70;99.90;;;1.19;94.23;99173.09;4985656;28;20034;-83
2024/02/09 07:32:47;;;;;;;31.60;9.23;;;;;;;1.16;94.29;99173.19;4970907;28;20038;-83
2024/02/09 07:35:13;;;;;;;34.30;10.13;;;2.70;99.90;;;1.14;94.84;99174.97;5081978;22;20053;-83
2024/02/09 07:37:41;;;;;;;29.50;9.40;;;2.70;99.90;;;1.10;94.84;99170.78;5068857;28;20029;-83
2024/02/09 07:40:08;;;;;;;32.38;10.27;;;2.70;99.90;;;1.07;94.98;99163.97;5049480;28;20029;-83
2024/02/09 07:42:46;;;;;;;37.10;11.00;;;2.60;99.90;;;1.05;95.40;99157.97;5050280;28;20028;-83
2024/02/09 07:45:15;;;;;;;30.40;8.70;;;2.60;99.90;;;1.03;95.36;99155.44;5032943;28;20029;-82
2024/02/09 07:47:44;;;;;;;34.03;9.82;;;2.60;99.90;;;1.02;95.92;99151.16;5014458;28;20242;-83
2024/02/09 07:50:17;;;;;;;31.65;10.07;;;2.50;99.90;;;0.97;96.48;99152.19;5047267;28;20396;-83
2024/02/09 07:55:15;;;;;;;27.50;8.85;;;2.50;99.90;;;0.89;97.57;99152.47;5111034;22;20089;-83
2024/02/09 07:57:43;;;;;;;38.92;10.25;;;2.50;99.90;;;0.89;97.41;99146.44;5058205;28;20029;-84
2024/02/09 08:00:20;;;;;;;32.45;10.30;;;2.40;99.90;;;0.89;97.66;99146.44;5037467;28;20021;-83
2024/02/09 08:02:46;;;;;;;43.08;10.63;;;2.40;99.90;;;0.88;97.63;99147.31;5057527;28;20040;-84
2024/02/09 08:05:28;;;;;;;30.38;11.18;;;2.40;99.90;;;0.88;97.83;99142.97;5032335;28;20120;-84
2024/02/09 08:08:24;;;;;;;31.30;11.77;;;2.40;99.90;;;0.80;98.31;99142.41;5033791;28;20037;-84
2024/02/09 08:11:05;;;;;;;31.23;9.95;;;2.30;99.90;;;0.76;98.53;99133.88;4981415;28;20134;-83
2024/02/09 08:13:57;;;;;;;32.45;10.63;;;;;;;0.78;99.05;99128.63;5048484;23;20051;-83
2024/02/09 08:16:36;;;;;;;31.38;10.98;;;;;;;0.77;99.21;99138.13;5086950;28;20064;-84
2024/02/09 08:19:37;;;;;;;41.40;11.05;;;2.30;99.90;;;0.74;99.20;99135.66;5069825;28;20259;-84
2024/02/09 08:22:31;;;;;;;34.25;11.55;;;;;;;0.73;99.36;99122.75;4918702;29;20047;-82
2024/02/09 08:24:56;;;;;;;42.17;11.85;;;2.30;99.90;;;0.75;99.63;99126.13;4903217;29;20036;-83
2024/02/09 08:27:36;;;;;;;47.03;12.70;;;;;;;0.70;100.00;99113.31;4900347;29;20511;-84
2024/02/09 08:30:16;;;;;;;29.17;11.40;;;2.30;99.90;;;0.68;100.00;99115.13;4914518;29;20491;-84
2024/02/09 08:33:08;;;;;;;36.67;13.07;;;2.30;99.90;;;0.67;100.00;99108.25;4899053;29;20622;-84
2024/02/09 08:36:06;;;;;;;32.15;11.82;;;;;;;0.67;100.00;99109.97;4843361;29;20057;-82
2024/02/09 08:39:31;;;;;;;;;;;;;;;;;;;;;
2024/02/09 08:41:57;;;;;;;32.92;11.98;;;2.20;99.90;;;0.59;100.00;99092.94;4787846;30;20043;-83
2024/02/09 08:44:47;;;;;;;;;;;;;;;;;;;;;
2024/02/09 08:48:06;;;;;;;37.35;14.10;;;2.20;99.90;;;0.57;100.00;99081.78;4770742;30;20537;-83
2024/02/09 08:51:16;;;;;;;30.98;12.52;;;;;;;0.55;100.00;99086.16;4797389;29;20134;-84
2024/02/09 08:54:18;;;;;;;37.55;11.90;;;2.10;99.90;;;0.54;100.00;99081.03;4918708;22;20044;-86
2024/02/09 08:56:57;;;;;;;34.13;13.40;;;;;;;0.56;100.00;99087.88;5067098;28;20526;-86
2024/02/09 09:00:24;;;;;;;35.88;13.00;;;;;;;0.55;100.00;99077.56;5048014;28;20045;-86
2024/02/09 09:03:17;;;;;;;32.00;11.98;;;2.10;99.90;;;0.55;100.00;99068.03;5049235;28;20033;-87
2024/02/09 09:06:17;;;;;;;39.05;12.30;;;;;;;0.57;100.00;99062.81;5007502;28;20033;-85
2024/02/09 09:09:21;;;;;;;;;;;;;;;;;;;;;
2024/02/09 09:12:07;;;;;;;36.65;12.25;;;;;;;0.59;100.00;99048.91;4951285;28;20490;-85
2024/02/09 09:14:46;;;;;;;26.80;11.85;;;;;;;0.61;100.00;99039.34;5153595;23;20187;-85
2024/02/09 09:17:24;;;;;;;34.88;13.63;;;2.20;99.90;;;0.63;100.00;99041.91;5063650;28;20352;-85
2024/02/09 09:20:57;;;;;;;34.25;13.48;;;2.20;99.90;;;0.59;100.00;99030.78;5024189;28;20044;-85
2024/02/09 09:23:51;;;;;;;26.15;11.02;;;2.10;99.90;;;0.56;100.00;99028.31;4954501;28;20050;-83
2024/02/09 09:30:37;;;;;;;;;;;;;;;;;;;;;
2024/02/09 09:33:44;;;;;;;27.58;10.77;;;2.10;99.90;;;0.50;100.00;99010.38;4800471;29;20058;-85
2024/02/09 09:36:39;;;;;;;38.58;12.88;;;2.10;99.90;;;0.54;100.00;99016.28;4757083;30;20048;-85
2024/02/09 09:39:15;;;;;;;27.40;10.95;;;;;;;0.55;100.00;99012.81;4708871;30;20181;-83
2024/02/09 09:42:27;;;;;;;26.30;9.32;;;2.10;99.90;;;0.55;100.00;99005.03;4723722;30;20060;-87
2024/02/09 09:45:10;;;;;;;32.83;12.43;;;2.10;99.90;;;0.61;100.00;99016.03;4723771;30;20029;-86
2024/02/09 09:55:46;;;;;;;25.10;11.55;;;2.10;99.90;;;0.56;100.00;98994.63;5087439;22;20450;-85
2024/02/09 09:58:15;;;;;;;27.30;9.95;;;;;;;0.53;100.00;98988.69;4965783;28;20074;-84
2024/02/09 10:04:37;;;;;;;34.38;11.93;;;2.10;99.90;;;0.51;100.00;98977.53;4906961;29;20049;-84
2024/02/09 10:07:19;;;;;;;26.33;9.75;;;;;;;0.55;100.00;98981.72;4820087;29;20088;-83
2024/02/09 10:10:31;;;;;;;28.17;10.88;;;2.10;99.90;;;0.51;100.00;98964.59;4815129;29;20129;-85
2024/02/09 10:13:56;;;;;;;21.70;9.15;;;2.10;99.90;;;0.51;100.00;98967.19;4775065;23;20424;-85
2024/02/09 10:17:07;;;;;;;29.98;10.95;;;2.10;99.90;;;0.54;100.00;98978.31;5044807;28;20091;-85
2024/02/09 10:19:45;;;;;;;33.92;11.90;;;2.10;99.90;;;0.51;100.00;98970.63;5035584;28;20063;-86
2024/02/09 10:22:18;;;;;;;24.98;10.23;;;;;;;0.43;100.00;98966.59;5033346;28;20072;-84
2024/02/09 10:24:56;;;;;;;30.02;12.02;;;;;;;0.47;100.00;98957.81;5022647;28;20038;-85
2024/02/09 10:31:50;;;;;;;26.63;11.70;;;2.10;99.90;;;0.49;100.00;98950.84;4925848;29;20088;-86
2024/02/09 10:34:16;;;;;;;36.15;10.48;;;;;;;0.48;100.00;98954.34;5027327;22;20049;-84
2024/02/09 10:37:28;;;;;;;26.48;12.25;;;2.10;99.90;;;0.48;100.00;98946.59;5056245;28;20033;-85
2024/02/09 10:43:27;;;;;;;;;;;;;;;;;;;;;
2024/02/09 10:45:56;;;;;;;30.52;12.70;;;2.10;99.90;;;0.50;100.00;98929.25;4923047;29;20058;-83
2024/02/09 10:49:09;;;;;;;32.85;12.70;;;2.10;99.90;;;0.54;100.00;98936.00;4908076;29;20093;-85
2024/02/09 10:51:37;;;;;;;30.30;12.85;;;2.10;99.90;;;0.52;100.00;98930.00;4870767;29;20182;-86
2024/02/09 10:55:17;;;;;;;24.75;9.02;;;2.10;99.90;;;0.51;100.00;98942.13;4972771;22;20052;-86
2024/02/09 10:58:19;;;;;;;31.27;12.77;;;2.10;99.90;;;0.48;100.00;98926.72;5022784;28;20049;-87
2024/02/09 11:01:06;;;;;;;34.70;13.63;;;;;;;0.53;100.00;98929.97;5012052;28;20038;-88
2024/02/09 11:04:09;;;;;;;31.63;13.50;;;2.10;99.90;;;0.57;100.00;98928.13;5015672;28;20369;-89
2024/02/09 11:06:49;;;;;;;29.27;13.02;;;;;;;0.53;100.00;98922.19;4988275;28;20500;-88
2024/02/09 11:09:41;;;;;;;23.42;8.85;;;;;;;0.53;100.00;98917.03;4991061;28;20038;-88
2024/02/09 11:16:17;;;;;;;32.33;13.57;;;2.10;99.90;;;0.51;100.00;98894.69;5027717;28;20125;-88
2024/02/09 11:19:36;;;;;;;27.35;12.35;;;2.10;99.90;;;0.48;100.00;98903.41;5003963;28;20021;-88
2024/02/09 11:22:17;;;;;;;23.67;9.23;;;;;;;0.43;100.00;98905.28;5020405;28;20487;-86
2024/02/09 11:28:34;;;;;;;26.38;11.90;;;;;;;0.44;100.00;98898.38;4896032;29;20040;-87
2024/02/09 11:32:07;;;;;;;28.27;12.98;;;2.10;99.90;;;0.50;100.00;98893.00;4888974;29;20044;-86
2024/02/09 11:34:48;;;;;;;18.50;8.35;;;2.00;99.90;;;0.42;100.00;98895.84;4892046;29;20081;-87
2024/02/09 11:41:25;;;;;;;18.48;8.38;;;2.00;99.90;;;0.48;100.00;98895.63;4856254;29;20513;-84
2024/02/09 11:44:36;;;;;;;30.17;10.63;;;;;;;0.47;100.00;98891.34;4776441;29;20043;-86
2024/02/09 11:47:50;;;;;;;26.90;12.40;;;;;;;0.48;100.00;98897.38;4772842;29;20042;-86
2024/02/09 11:50:46;;;;;;;28.23;12.15;;;;;;;0.47;100.00;98893.09;4777194;29;20042;-85
2024/02/09 11:56:40;;;;;;;25.27;12.68;;;2.00;99.90;;;0.44;100.00;98882.84;4996676;28;20050;-86
2024/02/09 11:59:15;;;;;;;28.55;12.15;;;;;;;0.49;100.00;98896.47;4996797;28;20125;-86
2024/02/09 12:02:09;;;;;;;;;;;;;;;;;;;;;
2024/02/09 12:04:57;;;;;;;30.00;13.20;;;2.00;99.90;;;0.51;100.00;98879.13;4995351;28;20042;-87
2024/02/09 12:10:45;;;;;;;23.25;9.50;;;2.10;99.90;;;0.48;100.00;98868.91;4925441;29;20122;-85
2024/02/09 12:13:56;;;;;;;27.95;12.18;;;2.00;99.90;;;0.47;100.00;98860.25;4902933;29;20036;-86
2024/02/09 12:20:15;;;;;;;24.70;10.75;;;;;;;0.44;100.00;98854.38;4954001;28;20125;-85
2024/02/09 12:26:33;;;;;;;22.33;10.57;;;;;;;0.51;100.00;98858.41;4903738;29;21292;-86
2024/02/09 12:29:27;;;;;;;39.30;18.60;;;2.10;99.90;;;0.54;100.00;98856.56;4881441;29;20508;-87
2024/02/09 12:35:36;;;;;;;23.17;11.93;;;;;;;0.62;100.00;98845.94;5078655;22;20052;-87
2024/02/09 12:38:27;;;;;;;26.65;12.40;;;2.20;99.90;;;0.57;100.00;98842.66;5048265;28;20036;-87
2024/02/09 12:41:07;;;;;;;29.48;14.35;;;;;;;0.59;100.00;98839.13;5063575;28;20059;-87
2024/02/09 12:47:18;;;;;;;28.33;13.95;;;2.20;99.90;;;0.64;100.00;98844.13;5046433;28;20057;-87
2024/02/09 12:50:26;;;;;;;30.15;11.38;;;2.20;99.90;;;0.62;100.00;98840.75;5022704;28;20129;-87
2024/02/09 12:55:47;;;;;;;16.23;7.65;;;2.20;99.90;;;0.61;100.00;98847.69;5083027;22;20125;-86
2024/02/09 12:58:49;;;;;;;37.17;17.90;;;;;;;0.61;100.00;98849.44;5042019;28;20115;-87
2024/02/09 13:08:05;;;;;;;23.15;11.60;;;;;;;0.48;100.00;98828.31;5017539;28;19915;-86
2024/02/09 13:11:18;;;;;;;19.40;9.60;;;2.10;99.90;;;0.53;100.00;98830.72;5005366;28;20119;-86
2024/02/09 13:14:29;;;;;;;22.27;11.68;;;2.10;99.90;;;0.55;100.00;98829.75;4945016;28;20122;-86
2024/02/09 13:20:25;;;;;;;27.17;13.25;;;2.10;99.90;;;0.54;100.00;98822.03;4862347;29;20565;-86
2024/02/09 13:23:23;;;;;;;17.80;8.45;;;2.10;99.90;;;0.56;100.00;98810.75;4855795;29;20501;-86
2024/02/09 13:26:09;;;;;;;;;;;;;;;;;;;;;
2024/02/09 13:29:25;;;;;;;25.65;12.20;;;;;;;0.63;100.00;98801.00;4803380;29;20043;-85
2024/02/09 13:32:35;;;;;;;24.42;11.20;;;2.20;99.90;;;0.62;100.00;98801.91;4767563;30;20059;-86
2024/02/09 13:35:35;;;;;;;23.45;12.00;;;2.20;99.90;;;0.66;100.00;98797.44;4710888;30;20045;-86
2024/02/09 13:38:30;;;;;;;25.00;11.75;;;2.20;99.90;;;0.65;100.00;98796.63;4699529;30;20557;-86
2024/02/09 13:42:00;;;;;;;21.33;10.65;;;2.20;99.90;;;0.67;100.00;98781.00;4742059;30;20536;-87
2024/02/09 13:44:38;;;;;;;24.38;10.60;;;;;;;0.64;100.00;98776.78;4700593;30;20058;-86
2024/02/09 13:50:48;;;;;;;17.00;8.13;;;2.20;99.90;;;0.53;100.00;98784.94;4702287;30;20076;-87
2024/02/09 13:53:26;;;;;;;21.67;9.63;;;;;;;0.48;100.00;98780.84;4712567;30;20050;-87
2024/02/09 13:55:53;;;;;;;33.05;13.90;;;2.10;99.90;;;0.52;100.00;98782.41;4700030;30;20083;-87
2024/02/09 13:58:46;;;;;;;24.55;11.73;;;;;;;0.52;100.00;98778.09;4730337;30;20063;-87
2024/02/09 14:01:27;;;;;;;26.40;12.30;;;2.10;99.90;;;0.57;100.00;98775.31;4730938;30;20068;-86
2024/02/09 14:04:07;;;;;;;27.15;12.25;;;;;;;0.56;100.00;98774.50;4780507;29;20101;-87
2024/02/09 14:07:46;;;;;;;25.25;11.35;;;;;;;0.57;100.00;98772.75;4791312;29;20499;-86
2024/02/09 14:10:15;;;;;;;21.95;10.68;;;;;;;0.59;100.00;98769.19;4812779;29;20035;-87
2024/02/09 14:13:09;;;;;;;14.95;6.82;;;2.20;99.90;;;0.54;100.00;98760.75;4863988;29;20176;-86
2024/02/09 14:16:09;;;;;;;19.73;10.13;;;;;;;0.60;100.00;98772.63;4883860;29;20155;-85
2024/02/09 14:19:04;;;;;;;22.58;9.80;;;2.20;99.90;;;0.63;100.00;98766.47;4842007;29;20056;-86
2024/02/09 14:21:56;;;;;;;21.35;9.98;;;2.20;99.90;;;0.60;100.00;98763.13;4856086;29;20076;-85
2024/02/09 14:24:26;;;;;;;18.33;9.60;;;;;;;0.63;100.00;98759.56;4894313;29;20402;-85
2024/02/09 14:26:58;;;;;;;21.00;10.73;;;2.20;99.90;;;0.64;100.00;98771.59;4947203;28;20066;-85
2024/02/09 14:29:25;;;;;;;20.83;10.43;;;2.20;99.90;;;0.64;100.00;98765.59;4974795;28;20464;-85
2024/02/09 14:31:53;;;;;;;22.83;11.15;;;2.20;99.90;;;0.66;100.00;98766.38;4991432;28;20077;-85
2024/02/09 14:34:25;;;;;;;20.60;10.65;;;2.20;99.90;;;0.65;100.00;98764.66;4955333;28;20034;-85
2024/02/09 14:36:53;;;;;;;21.08;11.20;;;2.20;99.90;;;0.68;100.00;98762.81;4987080;28;20101;-86
2024/02/09 14:39:19;;;;;;;22.58;11.23;;;2.30;99.90;;;0.70;100.00;98766.19;4959160;28;20034;-85
2024/02/09 14:45:24;;;;;;;21.13;10.98;;;;;;;0.70;100.00;98752.41;4936740;29;20036;-86
2024/02/09 14:48:37;;;;;;;22.52;11.73;;;2.30;99.90;;;0.66;100.00;98743.91;4921339;29;20032;-86
2024/02/09 15:47:34;;;;;;;24.38;12.15;;;2.20;99.90;;;0.62;100.00;98721.59;5040311;28;20057;-83
2024/02/09 15:50:11;;;;;;;22.73;12.43;;;2.20;99.90;;;0.61;100.00;98720.75;5044061;28;20515;-83
2024/02/09 15:52:37;;;;;;;24.95;13.13;;;2.20;99.90;;;0.64;100.00;98724.97;5030417;28;20063;-82
2024/02/09 15:55:03;;;;;;;26.38;13.45;;;2.20;99.90;;;0.64;100.00;98727.56;5030351;28;20100;-83
2024/02/09 15:57:37;;;;;;;27.88;13.85;;;2.20;99.90;;;0.68;100.00;98736.06;5043356;28;20112;-82
2024/02/09 16:00:07;;;;;;;22.38;12.75;;;2.20;99.90;;;0.68;100.00;98736.91;5047436;28;20033;-82
2024/02/09 16:02:40;;;;;;;22.45;11.70;;;2.20;99.90;;;0.59;100.00;98714.78;5045102;28;20029;-82
2024/02/09 16:05:10;;;;;;;20.95;11.60;;;2.20;99.90;;;0.64;100.00;98714.63;5043051;28;20104;-82
2024/02/09 16:07:47;;;;;;;23.88;13.35;;;2.20;99.90;;;0.65;100.00;98720.63;5044234;28;20219;-81
2024/02/09 16:10:17;;;;;;;22.42;12.00;;;2.20;99.90;;;0.65;100.00;98728.41;5045047;28;20030;-81
2024/02/09 16:12:57;;;;;;;23.58;11.68;;;2.20;99.90;;;0.61;100.00;98727.69;5029834;28;20060;-82
2024/02/09 16:15:31;;;;;;;21.63;12.00;;;;;;;0.65;100.00;98721.50;5044860;28;20717;-82
2024/02/09 16:18:08;;;;;;;26.20;13.50;;;2.20;99.90;;;0.65;100.00;98721.50;5044210;28;20093;-80
2024/02/09 16:20:37;;;;;;;26.25;13.05;;;2.20;99.90;;;0.65;100.00;98718.03;5026354;28;20039;-81
2024/02/09 16:23:15;;;;;;;38.50;19.42;;;2.30;99.90;;;0.67;100.00;98716.25;5008635;28;20025;-81
2024/02/09 16:25:44;;;;;;;26.75;15.57;;;2.20;99.90;;;0.65;100.00;98707.69;5049873;28;20025;-83
2024/02/09 16:28:17;;;;;;;27.42;14.55;;;2.30;99.90;;;0.72;100.00;98701.38;5026871;28;20367;-83
2024/02/09 16:30:45;;;;;;;25.67;13.30;;;2.30;99.90;;;0.74;100.00;98704.75;5025809;28;20034;-84
2024/02/09 16:33:29;;;;;;;25.58;14.35;;;2.30;99.90;;;0.79;100.00;98713.19;5013747;28;20059;-84
2024/02/09 16:36:05;;;;;;;24.33;14.32;;;2.30;99.90;;;0.82;100.00;98710.47;5015055;28;20038;-84
2024/02/09 16:38:45;;;;;;;47.08;26.15;;;2.40;99.90;;;0.88;100.00;98715.41;5047759;28;20124;-84
2024/02/09 16:41:13;;;;;;;30.13;15.07;;;2.40;99.90;;;0.90;100.00;98711.00;5025790;28;20024;-83
2024/02/09 16:43:53;;;;;;;35.42;18.55;;;2.40;99.90;;;0.94;100.00;98716.94;5049667;28;20045;-83
2024/02/09 16:46:28;;;;;;;25.50;15.40;;;2.50;99.90;;;0.95;100.00;98714.28;5028554;28;20055;-83
2024/02/09 16:48:56;;;;;;;19.50;12.05;;;2.50;99.90;;;0.99;100.00;98726.22;5024791;28;20041;-84
2024/02/09 16:51:27;;;;;;;19.90;10.57;;;2.50;99.90;;;1.00;100.00;98722.72;5028869;28;20037;-83
2024/02/09 16:53:57;;;;;;;19.65;11.52;;;2.50;99.90;;;1.00;100.00;98722.72;5026262;28;20043;-83
2024/02/09 16:56:23;;;;;;;17.15;10.23;;;2.60;99.90;;;1.05;100.00;98721.69;5029397;28;20116;-84
2024/02/09 16:58:56;;;;;;;21.15;12.18;;;2.60;99.90;;;1.06;100.00;98719.03;5024381;28;20180;-83
2024/02/09 17:01:25;;;;;;;21.20;11.98;;;2.50;99.90;;;0.99;100.00;98713.25;5010553;28;20041;-82
2024/02/09 17:03:53;;;;;;;26.10;15.30;;;2.50;99.90;;;1.00;100.00;98716.69;5024991;28;20542;-82
2024/02/09 17:06:42;;;;;;;17.85;10.50;;;2.60;99.90;;;1.06;100.00;98716.44;5026655;28;20115;-82
2024/02/09 17:09:08;;;;;;;29.92;14.77;;;2.60;99.90;;;1.07;100.00;98717.28;4934922;28;20065;-82
2024/02/09 17:11:34;;;;;;;31.95;18.48;;;2.60;99.90;;;1.08;100.00;98717.22;4940659;28;20114;-81
2024/02/09 17:14:10;;;;;;;22.20;14.75;;;2.60;99.90;;;1.07;100.00;98712.94;4940685;28;20044;-82
2024/02/09 17:16:36;;;;;;;;;;;2.60;99.90;;;1.02;100.00;98713.13;4943733;28;20481;-81
2024/02/09 17:19:01;;;;;;;18.40;10.63;;;2.60;99.90;;;1.00;100.00;98716.69;4940072;28;19989;-82
2024/02/09 17:21:27;;;;;;;15.30;10.30;;;2.60;99.90;;;1.03;100.00;98711.38;4951404;28;20074;-81
2024/02/09 17:24:01;;;;;;;16.52;9.95;;;2.60;99.90;;;1.07;100.00;98714.69;4950114;28;20043;-82
2024/02/09 17:26:27;;;;;;;19.00;9.70;;;2.60;99.90;;;1.08;100.00;98703.41;4931280;28;20051;-82
2024/02/09 17:28:55;;;;;;;15.25;9.90;;;2.60;99.90;;;1.09;100.00;98699.94;4944092;28;20102;-82
2024/02/09 17:31:30;;;;;;;16.05;10.63;;;2.60;99.90;;;1.09;100.00;98694.75;4951510;28;20034;-82
2024/02/09 17:33:56;;;;;;;19.17;10.68;;;2.60;99.90;;;1.12;100.00;98703.22;4951165;28;20529;-81